Elisabeth — LHEA — position and weather

sailwx.info

Track history (hours):
 
Tides and Currents Weather Stations Pressure Air Temp Water Temp Dewpoint Dewpoint Depression Visibility Wind Speed Wind Dir Waves Ship Positions

Elisabeth

Last reported at 2016-Dec-04 12:08 UTC. Time now 2016-Dec-07 10:39 UTC.
Position N 59°37' E 005°15'.

Length 61 m; draft 7 m.

Type: Fishing. MMSI: 259166000.

Date/timePositionNaut miles runAvg speedWind from/ knotsBaromVisibWave heightAir tempDewpointWater temp
2016-Dec-04 12:08N 59°37' E 005°15'0 0.0
2016-Dec-04 11:29N 59°37' E 005°15'0 0.0
2016-Dec-04 10:30N 59°37' E 005°15'0 0.0
2016-Dec-04 09:33N 59°37' E 005°15'0 0.0
2016-Dec-04 08:33N 59°37' E 005°15'0 0.0
2016-Dec-04 07:32N 59°37' E 005°15'0 0.0
2016-Dec-04 06:33N 59°37' E 005°15'0 0.0
2016-Dec-04 05:33N 59°37' E 005°15'0 0.0
2016-Dec-04 04:30N 59°37' E 005°15'0 0.0
2016-Dec-04 03:33N 59°37' E 005°15'0 0.0
2016-Dec-04 02:33N 59°37' E 005°15'0 0.0
2016-Dec-04 01:33N 59°37' E 005°15'0 0.0
2016-Dec-04 00:32N 59°37' E 005°15'0 0.0
2016-Dec-03 23:32N 59°37' E 005°15'0 0.0
2016-Dec-03 22:33N 59°37' E 005°15'0 0.0
2016-Dec-03 21:33N 59°37' E 005°15'0 0.0
2016-Dec-03 20:30N 59°37' E 005°15'0 0.0
2016-Dec-03 19:31N 59°37' E 005°15'0 0.0
2016-Dec-03 18:33N 59°37' E 005°15'0 0.0
2016-Dec-03 17:32N 59°37' E 005°15'0 0.0
2016-Dec-03 16:33N 59°37' E 005°15'0 0.0
2016-Dec-03 15:33N 59°37' E 005°15'0 0.0
2016-Dec-03 14:33N 59°37' E 005°15'0 0.0
2016-Dec-03 13:33N 59°37' E 005°15'0 0.0
2016-Dec-03 12:33N 59°37' E 005°15'0 0.0
2016-Dec-03 11:29N 59°37' E 005°15'0 0.0
2016-Dec-03 10:24N 59°37' E 005°15'0 0.0
2016-Dec-03 09:32N 59°37' E 005°15'0 0.0
2016-Dec-03 08:32N 59°37' E 005°15'0 0.0
2016-Dec-03 07:33N 59°37' E 005°15'0 0.0
2016-Dec-03 06:33N 59°37' E 005°15'0 0.0
2016-Dec-03 05:32N 59°37' E 005°15'0 0.0
2016-Dec-03 04:33N 59°37' E 005°15'0 0.0
2016-Dec-03 03:33N 59°37' E 005°15'0 0.0
2016-Dec-03 02:33N 59°37' E 005°15'0 0.0
2016-Dec-03 01:33N 59°37' E 005°15'0 0.0
2016-Dec-03 00:33N 59°37' E 005°15'0 0.0
2016-Dec-02 23:33N 59°37' E 005°15'0 0.0
2016-Dec-02 22:33N 59°37' E 005°15'0 0.0
2016-Dec-02 21:33N 59°37' E 005°15'0 0.0
2016-Dec-02 20:33N 59°37' E 005°15'0 0.0
2016-Dec-02 19:33N 59°37' E 005°15'0 0.0
2016-Dec-02 18:33N 59°37' E 005°15'0 0.0
2016-Dec-02 17:33N 59°37' E 005°15'0 0.0
2016-Dec-02 16:33N 59°37' E 005°15'0 0.0
2016-Dec-02 15:33N 59°37' E 005°15'0 0.5
2016-Dec-02 14:33N 59°36' E 005°14'0 0.0
2016-Dec-02 13:33N 59°36' E 005°14'0 0.5
2016-Dec-02 12:33N 59°37' E 005°15'0 0.0
2016-Dec-02 11:33N 59°37' E 005°15'0 0.0
2016-Dec-02 10:33N 59°37' E 005°15'0 0.5
2016-Dec-02 09:34N 59°36' E 005°14'0 0.5
2016-Dec-02 08:33N 59°37' E 005°15'1 0.5
2016-Dec-02 07:33N 59°36' E 005°14'0 0.0
2016-Dec-02 06:33N 59°36' E 005°14'0 0.0
2016-Dec-02 05:33N 59°36' E 005°14'0 0.5
2016-Dec-02 04:33N 59°37' E 005°15'0 0.5
2016-Dec-02 03:33N 59°36' E 005°14'0 0.0
2016-Dec-02 02:33N 59°36' E 005°14'0 0.0
2016-Dec-02 01:33N 59°36' E 005°14'0 0.5
2016-Dec-02 00:33N 59°37' E 005°15'0 0.5
2016-Dec-01 23:33N 59°36' E 005°14'0 0.0
2016-Dec-01 22:33N 59°36' E 005°14'0 0.0
2016-Dec-01 21:33N 59°36' E 005°14'0 0.0
2016-Dec-01 20:33N 59°36' E 005°14'0 0.0
2016-Dec-01 19:34N 59°36' E 005°14'0 0.5
2016-Dec-01 18:33N 59°37' E 005°15'15 5.0
2016-Dec-01 15:33N 59°30' E 004°48'25 7.6
2016-Dec-01 12:14N 59°51' E 005°15'912.8
2016-Dec-01 11:33N 59°44' E 005°23'6 3.1
2016-Dec-01 09:34N 59°39' E 005°15'2 2.2
2016-Dec-01 08:31N 59°37' E 005°15'0 0.0
2016-Dec-01 07:29N 59°37' E 005°15'0 0.0
2016-Dec-01 06:33N 59°37' E 005°15'0 0.0
2016-Dec-01 05:30N 59°37' E 005°15'0 0.0
2016-Dec-01 04:20N 59°37' E 005°15'0 0.0
2016-Dec-01 03:07N 59°37' E 005°15'0 0.0
2016-Dec-01 01:32N 59°37' E 005°15'0 0.0
2016-Dec-01 00:26N 59°37' E 005°15'0 0.0
2016-Nov-30 23:33N 59°37' E 005°15'0 0.0
2016-Nov-30 15:32N 59°37' E 005°15'29 1.6
2016-Nov-29 21:06N 59°57' E 004°34'4 7.9
2016-Nov-29 20:33N 60°00' E 004°40'8 7.5
2016-Nov-29 19:33N 60°05' E 004°51'8 7.8
2016-Nov-29 18:32N 60°09' E 005°05'7 6.8
2016-Nov-29 17:33N 60°16' E 005°09'7 7.2
2016-Nov-29 16:33N 60°23' E 005°11'3 2.8
2016-Nov-29 15:33N 60°24' E 005°16'0 0.0
2016-Nov-29 14:33N 60°24' E 005°16'4 4.0
2016-Nov-29 13:33N 60°21' E 005°10'7 7.3
2016-Nov-29 12:33N 60°14' E 005°10'9 8.5
2016-Nov-29 11:33N 60°06' E 005°18'8 7.8
2016-Nov-29 10:33N 59°59' E 005°22'8 7.9
2016-Nov-29 09:33N 59°53' E 005°32'8 7.8
2016-Nov-29 08:33N 59°45' E 005°30'8 7.7
2016-Nov-29 07:33N 59°39' E 005°20'4 3.7
2016-Nov-29 06:33N 59°37' E 005°15'0 0.0
2016-Nov-29 05:33N 59°37' E 005°15'0 0.0
2016-Nov-29 04:33N 59°37' E 005°15'0 0.0
2016-Nov-29 03:33N 59°37' E 005°15'0 0.0
2016-Nov-29 02:33N 59°37' E 005°15'0 0.0
2016-Nov-29 01:33N 59°37' E 005°15'0 0.0
2016-Nov-29 00:32N 59°37' E 005°15'0 0.0
2016-Nov-28 23:33N 59°37' E 005°15'0 0.0
2016-Nov-28 22:33N 59°37' E 005°15'0 0.0
2016-Nov-28 21:33N 59°37' E 005°15'0 0.0
2016-Nov-28 20:34N 59°37' E 005°15'0 0.0
2016-Nov-28 19:33N 59°37' E 005°15'0 0.0
2016-Nov-28 18:33N 59°37' E 005°15'0 0.0
2016-Nov-28 17:33N 59°37' E 005°15'0 0.0
2016-Nov-28 16:33N 59°37' E 005°15'0 0.0
2016-Nov-28 15:33N 59°37' E 005°15'0 0.0
2016-Nov-28 14:33N 59°37' E 005°15'0 0.0
2016-Nov-28 13:32N 59°37' E 005°15'0 0.0
2016-Nov-28 12:33N 59°37' E 005°15'0 0.0
2016-Nov-28 11:33N 59°37' E 005°15'0 0.0
2016-Nov-28 10:32N 59°37' E 005°15'0 0.0
2016-Nov-28 09:33N 59°37' E 005°15'0 0.0
2016-Nov-28 08:33N 59°37' E 005°15'0 0.0
2016-Nov-28 07:33N 59°37' E 005°15'0 0.0
2016-Nov-28 06:33N 59°37' E 005°15'0 0.0
2016-Nov-28 05:33N 59°37' E 005°15'0 0.0
2016-Nov-28 04:33N 59°37' E 005°15'0 0.0
2016-Nov-28 03:34N 59°37' E 005°15'0 0.0
2016-Nov-28 02:33N 59°37' E 005°15'0 0.0
2016-Nov-28 01:33N 59°37' E 005°15'0 0.0
2016-Nov-28 00:32N 59°37' E 005°15'0 0.0
2016-Nov-27 23:33N 59°37' E 005°15'0 0.0
2016-Nov-27 22:33N 59°37' E 005°15'0 0.0
2016-Nov-27 21:33N 59°37' E 005°15'0 0.0
2016-Nov-27 20:33N 59°37' E 005°15'0 0.0
2016-Nov-27 19:32N 59°37' E 005°15'0 0.0
2016-Nov-27 18:33N 59°37' E 005°15'0 0.0
2016-Nov-27 17:33N 59°37' E 005°15'0 0.0
2016-Nov-27 16:33N 59°37' E 005°15'0 0.0
2016-Nov-27 15:33N 59°37' E 005°15'0 0.0
2016-Nov-27 14:33N 59°37' E 005°15'0 0.0
2016-Nov-27 13:33N 59°37' E 005°15'0 0.0
2016-Nov-27 12:33N 59°37' E 005°15'0 0.0
2016-Nov-27 11:33N 59°37' E 005°15'0 0.0
2016-Nov-27 10:33N 59°37' E 005°15'0 0.0
2016-Nov-27 09:33N 59°37' E 005°15'0 0.0
2016-Nov-27 08:33N 59°37' E 005°15'0 0.0
2016-Nov-27 07:33N 59°37' E 005°15'0 0.0
2016-Nov-27 06:33N 59°37' E 005°15'0 0.0
2016-Nov-27 05:32N 59°37' E 005°15'0 0.0
2016-Nov-27 04:33N 59°37' E 005°15'0 0.0
2016-Nov-27 03:33N 59°37' E 005°15'0 0.0
2016-Nov-27 02:33N 59°37' E 005°15'0 0.0
2016-Nov-27 01:33N 59°37' E 005°15'0 0.0
2016-Nov-27 00:34N 59°37' E 005°15'0 0.0
2016-Nov-26 23:33N 59°37' E 005°15'0 0.0
2016-Nov-26 22:33N 59°37' E 005°15'0 0.0
2016-Nov-26 21:33N 59°37' E 005°15'0 0.0
2016-Nov-26 20:33N 59°37' E 005°15'0 0.0
2016-Nov-26 19:32N 59°37' E 005°15'0 0.0
2016-Nov-26 18:33N 59°37' E 005°15'0 0.0
2016-Nov-26 17:33N 59°37' E 005°15'0 0.0
2016-Nov-26 16:33N 59°37' E 005°15'0 0.0
2016-Nov-26 15:33N 59°37' E 005°15'0 0.0
2016-Nov-26 14:32N 59°37' E 005°15'0 0.0
2016-Nov-26 13:33N 59°37' E 005°15'0 0.0
2016-Nov-26 12:33N 59°37' E 005°15'0 0.0
2016-Nov-26 11:33N 59°37' E 005°15'0 0.0
2016-Nov-26 10:33N 59°37' E 005°15'0 0.0
2016-Nov-26 09:33N 59°37' E 005°15'0 0.0
2016-Nov-26 08:33N 59°37' E 005°15'0 0.0
2016-Nov-26 07:33N 59°37' E 005°15'0 0.0
2016-Nov-26 06:33N 59°37' E 005°15'0 0.0
2016-Nov-26 05:33N 59°37' E 005°15'0 0.0
2016-Nov-26 04:33N 59°37' E 005°15'0 0.0
2016-Nov-26 03:33N 59°37' E 005°15'0 0.0
2016-Nov-26 02:33N 59°37' E 005°15'0 0.0
2016-Nov-26 01:32N 59°37' E 005°15'0 0.0
2016-Nov-26 00:33N 59°37' E 005°15'0 0.0
2016-Nov-25 23:32N 59°37' E 005°15'0 0.0
2016-Nov-25 22:33N 59°37' E 005°15'0 0.0
2016-Nov-25 21:34N 59°37' E 005°15'0 0.0
2016-Nov-25 20:33N 59°37' E 005°15'0 0.0
2016-Nov-25 19:33N 59°37' E 005°15'0 0.0
2016-Nov-25 18:33N 59°37' E 005°15'0 0.0
2016-Nov-25 17:34N 59°37' E 005°15'0 0.0
2016-Nov-25 16:33N 59°37' E 005°15'  
Track history (hours):
 
Tides and Currents Weather Stations Pressure Air Temp Water Temp Dewpoint Dewpoint Depression Visibility Wind Speed Wind Dir Waves Ship Positions

Elisabeth

Last reported at 2016-Dec-04 12:08 UTC. Time now 2016-Dec-07 10:39 UTC.
Position N 59°37' E 005°15'.

Length 61 m; draft 7 m.

Type: Fishing. MMSI: 259166000.

Date/timePositionNaut miles runAvg speedWind from/ knotsBaromVisibWave heightAir tempDewpointWater temp
2016-Dec-04 12:08N 59°37' E 005°15'0 0.0
2016-Dec-04 11:29N 59°37' E 005°15'0 0.0
2016-Dec-04 10:30N 59°37' E 005°15'0 0.0
2016-Dec-04 09:33N 59°37' E 005°15'0 0.0
2016-Dec-04 08:33N 59°37' E 005°15'0 0.0
2016-Dec-04 07:32N 59°37' E 005°15'0 0.0
2016-Dec-04 06:33N 59°37' E 005°15'0 0.0
2016-Dec-04 05:33N 59°37' E 005°15'0 0.0
2016-Dec-04 04:30N 59°37' E 005°15'0 0.0
2016-Dec-04 03:33N 59°37' E 005°15'0 0.0
2016-Dec-04 02:33N 59°37' E 005°15'0 0.0
2016-Dec-04 01:33N 59°37' E 005°15'0 0.0
2016-Dec-04 00:32N 59°37' E 005°15'0 0.0
2016-Dec-03 23:32N 59°37' E 005°15'0 0.0
2016-Dec-03 22:33N 59°37' E 005°15'0 0.0
2016-Dec-03 21:33N 59°37' E 005°15'0 0.0
2016-Dec-03 20:30N 59°37' E 005°15'0 0.0
2016-Dec-03 19:31N 59°37' E 005°15'0 0.0
2016-Dec-03 18:33N 59°37' E 005°15'0 0.0
2016-Dec-03 17:32N 59°37' E 005°15'0 0.0
2016-Dec-03 16:33N 59°37' E 005°15'0 0.0
2016-Dec-03 15:33N 59°37' E 005°15'0 0.0
2016-Dec-03 14:33N 59°37' E 005°15'0 0.0
2016-Dec-03 13:33N 59°37' E 005°15'0 0.0
2016-Dec-03 12:33N 59°37' E 005°15'0 0.0
2016-Dec-03 11:29N 59°37' E 005°15'0 0.0
2016-Dec-03 10:24N 59°37' E 005°15'0 0.0
2016-Dec-03 09:32N 59°37' E 005°15'0 0.0
2016-Dec-03 08:32N 59°37' E 005°15'0 0.0
2016-Dec-03 07:33N 59°37' E 005°15'0 0.0
2016-Dec-03 06:33N 59°37' E 005°15'0 0.0
2016-Dec-03 05:32N 59°37' E 005°15'0 0.0
2016-Dec-03 04:33N 59°37' E 005°15'0 0.0
2016-Dec-03 03:33N 59°37' E 005°15'0 0.0
2016-Dec-03 02:33N 59°37' E 005°15'0 0.0
2016-Dec-03 01:33N 59°37' E 005°15'0 0.0
2016-Dec-03 00:33N 59°37' E 005°15'0 0.0
2016-Dec-02 23:33N 59°37' E 005°15'0 0.0
2016-Dec-02 22:33N 59°37' E 005°15'0 0.0
2016-Dec-02 21:33N 59°37' E 005°15'0 0.0
2016-Dec-02 20:33N 59°37' E 005°15'0 0.0
2016-Dec-02 19:33N 59°37' E 005°15'0 0.0
2016-Dec-02 18:33N 59°37' E 005°15'0 0.0
2016-Dec-02 17:33N 59°37' E 005°15'0 0.0
2016-Dec-02 16:33N 59°37' E 005°15'0 0.0
2016-Dec-02 15:33N 59°37' E 005°15'0 0.5
2016-Dec-02 14:33N 59°36' E 005°14'0 0.0
2016-Dec-02 13:33N 59°36' E 005°14'0 0.5
2016-Dec-02 12:33N 59°37' E 005°15'0 0.0
2016-Dec-02 11:33N 59°37' E 005°15'0 0.0
2016-Dec-02 10:33N 59°37' E 005°15'0 0.5
2016-Dec-02 09:34N 59°36' E 005°14'0 0.5
2016-Dec-02 08:33N 59°37' E 005°15'1 0.5
2016-Dec-02 07:33N 59°36' E 005°14'0 0.0
2016-Dec-02 06:33N 59°36' E 005°14'0 0.0
2016-Dec-02 05:33N 59°36' E 005°14'0 0.5
2016-Dec-02 04:33N 59°37' E 005°15'0 0.5
2016-Dec-02 03:33N 59°36' E 005°14'0 0.0
2016-Dec-02 02:33N 59°36' E 005°14'0 0.0
2016-Dec-02 01:33N 59°36' E 005°14'0 0.5
2016-Dec-02 00:33N 59°37' E 005°15'0 0.5
2016-Dec-01 23:33N 59°36' E 005°14'0 0.0
2016-Dec-01 22:33N 59°36' E 005°14'0 0.0
2016-Dec-01 21:33N 59°36' E 005°14'0 0.0
2016-Dec-01 20:33N 59°36' E 005°14'0 0.0
2016-Dec-01 19:34N 59°36' E 005°14'0 0.5
2016-Dec-01 18:33N 59°37' E 005°15'15 5.0
2016-Dec-01 15:33N 59°30' E 004°48'25 7.6
2016-Dec-01 12:14N 59°51' E 005°15'912.8
2016-Dec-01 11:33N 59°44' E 005°23'6 3.1
2016-Dec-01 09:34N 59°39' E 005°15'2 2.2
2016-Dec-01 08:31N 59°37' E 005°15'0 0.0
2016-Dec-01 07:29N 59°37' E 005°15'0 0.0
2016-Dec-01 06:33N 59°37' E 005°15'0 0.0
2016-Dec-01 05:30N 59°37' E 005°15'0 0.0
2016-Dec-01 04:20N 59°37' E 005°15'0 0.0
2016-Dec-01 03:07N 59°37' E 005°15'0 0.0
2016-Dec-01 01:32N 59°37' E 005°15'0 0.0
2016-Dec-01 00:26N 59°37' E 005°15'0 0.0
2016-Nov-30 23:33N 59°37' E 005°15'0 0.0
2016-Nov-30 15:32N 59°37' E 005°15'29 1.6
2016-Nov-29 21:06N 59°57' E 004°34'4 7.9
2016-Nov-29 20:33N 60°00' E 004°40'8 7.5
2016-Nov-29 19:33N 60°05' E 004°51'8 7.8
2016-Nov-29 18:32N 60°09' E 005°05'7 6.8
2016-Nov-29 17:33N 60°16' E 005°09'7 7.2
2016-Nov-29 16:33N 60°23' E 005°11'3 2.8
2016-Nov-29 15:33N 60°24' E 005°16'0 0.0
2016-Nov-29 14:33N 60°24' E 005°16'4 4.0
2016-Nov-29 13:33N 60°21' E 005°10'7 7.3
2016-Nov-29 12:33N 60°14' E 005°10'9 8.5
2016-Nov-29 11:33N 60°06' E 005°18'8 7.8
2016-Nov-29 10:33N 59°59' E 005°22'8 7.9
2016-Nov-29 09:33N 59°53' E 005°32'8 7.8
2016-Nov-29 08:33N 59°45' E 005°30'8 7.7
2016-Nov-29 07:33N 59°39' E 005°20'4 3.7
2016-Nov-29 06:33N 59°37' E 005°15'0 0.0
2016-Nov-29 05:33N 59°37' E 005°15'0 0.0
2016-Nov-29 04:33N 59°37' E 005°15'0 0.0
2016-Nov-29 03:33N 59°37' E 005°15'0 0.0
2016-Nov-29 02:33N 59°37' E 005°15'0 0.0
2016-Nov-29 01:33N 59°37' E 005°15'0 0.0
2016-Nov-29 00:32N 59°37' E 005°15'0 0.0
2016-Nov-28 23:33N 59°37' E 005°15'0 0.0
2016-Nov-28 22:33N 59°37' E 005°15'0 0.0
2016-Nov-28 21:33N 59°37' E 005°15'0 0.0
2016-Nov-28 20:34N 59°37' E 005°15'0 0.0
2016-Nov-28 19:33N 59°37' E 005°15'0 0.0
2016-Nov-28 18:33N 59°37' E 005°15'0 0.0
2016-Nov-28 17:33N 59°37' E 005°15'0 0.0
2016-Nov-28 16:33N 59°37' E 005°15'0 0.0
2016-Nov-28 15:33N 59°37' E 005°15'0 0.0
2016-Nov-28 14:33N 59°37' E 005°15'0 0.0
2016-Nov-28 13:32N 59°37' E 005°15'0 0.0
2016-Nov-28 12:33N 59°37' E 005°15'0 0.0
2016-Nov-28 11:33N 59°37' E 005°15'0 0.0
2016-Nov-28 10:32N 59°37' E 005°15'0 0.0
2016-Nov-28 09:33N 59°37' E 005°15'0 0.0
2016-Nov-28 08:33N 59°37' E 005°15'0 0.0
2016-Nov-28 07:33N 59°37' E 005°15'0 0.0
2016-Nov-28 06:33N 59°37' E 005°15'0 0.0
2016-Nov-28 05:33N 59°37' E 005°15'0 0.0
2016-Nov-28 04:33N 59°37' E 005°15'0 0.0
2016-Nov-28 03:34N 59°37' E 005°15'0 0.0
2016-Nov-28 02:33N 59°37' E 005°15'0 0.0
2016-Nov-28 01:33N 59°37' E 005°15'0 0.0
2016-Nov-28 00:32N 59°37' E 005°15'0 0.0
2016-Nov-27 23:33N 59°37' E 005°15'0 0.0
2016-Nov-27 22:33N 59°37' E 005°15'0 0.0
2016-Nov-27 21:33N 59°37' E 005°15'0 0.0
2016-Nov-27 20:33N 59°37' E 005°15'0 0.0
2016-Nov-27 19:32N 59°37' E 005°15'0 0.0
2016-Nov-27 18:33N 59°37' E 005°15'0 0.0
2016-Nov-27 17:33N 59°37' E 005°15'0 0.0
2016-Nov-27 16:33N 59°37' E 005°15'0 0.0
2016-Nov-27 15:33N 59°37' E 005°15'0 0.0
2016-Nov-27 14:33N 59°37' E 005°15'0 0.0
2016-Nov-27 13:33N 59°37' E 005°15'0 0.0
2016-Nov-27 12:33N 59°37' E 005°15'0 0.0
2016-Nov-27 11:33N 59°37' E 005°15'0 0.0
2016-Nov-27 10:33N 59°37' E 005°15'0 0.0
2016-Nov-27 09:33N 59°37' E 005°15'0 0.0
2016-Nov-27 08:33N 59°37' E 005°15'0 0.0
2016-Nov-27 07:33N 59°37' E 005°15'0 0.0
2016-Nov-27 06:33N 59°37' E 005°15'0 0.0
2016-Nov-27 05:32N 59°37' E 005°15'0 0.0
2016-Nov-27 04:33N 59°37' E 005°15'0 0.0
2016-Nov-27 03:33N 59°37' E 005°15'0 0.0
2016-Nov-27 02:33N 59°37' E 005°15'0 0.0
2016-Nov-27 01:33N 59°37' E 005°15'0 0.0
2016-Nov-27 00:34N 59°37' E 005°15'0 0.0
2016-Nov-26 23:33N 59°37' E 005°15'0 0.0
2016-Nov-26 22:33N 59°37' E 005°15'0 0.0
2016-Nov-26 21:33N 59°37' E 005°15'0 0.0
2016-Nov-26 20:33N 59°37' E 005°15'0 0.0
2016-Nov-26 19:32N 59°37' E 005°15'0 0.0
2016-Nov-26 18:33N 59°37' E 005°15'0 0.0
2016-Nov-26 17:33N 59°37' E 005°15'0 0.0
2016-Nov-26 16:33N 59°37' E 005°15'0 0.0
2016-Nov-26 15:33N 59°37' E 005°15'0 0.0
2016-Nov-26 14:32N 59°37' E 005°15'0 0.0
2016-Nov-26 13:33N 59°37' E 005°15'0 0.0
2016-Nov-26 12:33N 59°37' E 005°15'0 0.0
2016-Nov-26 11:33N 59°37' E 005°15'0 0.0
2016-Nov-26 10:33N 59°37' E 005°15'0 0.0
2016-Nov-26 09:33N 59°37' E 005°15'0 0.0
2016-Nov-26 08:33N 59°37' E 005°15'0 0.0
2016-Nov-26 07:33N 59°37' E 005°15'0 0.0
2016-Nov-26 06:33N 59°37' E 005°15'0 0.0
2016-Nov-26 05:33N 59°37' E 005°15'0 0.0
2016-Nov-26 04:33N 59°37' E 005°15'0 0.0
2016-Nov-26 03:33N 59°37' E 005°15'0 0.0
2016-Nov-26 02:33N 59°37' E 005°15'0 0.0
2016-Nov-26 01:32N 59°37' E 005°15'0 0.0
2016-Nov-26 00:33N 59°37' E 005°15'0 0.0
2016-Nov-25 23:32N 59°37' E 005°15'0 0.0
2016-Nov-25 22:33N 59°37' E 005°15'0 0.0
2016-Nov-25 21:34N 59°37' E 005°15'0 0.0
2016-Nov-25 20:33N 59°37' E 005°15'0 0.0
2016-Nov-25 19:33N 59°37' E 005°15'0 0.0
2016-Nov-25 18:33N 59°37' E 005°15'0 0.0
2016-Nov-25 17:34N 59°37' E 005°15'0 0.0
2016-Nov-25 16:33N 59°37' E 005°15'  

Dump ship's entire track history